createdAt,value
2022-10-04T00:01:50.145Z,100.00
2022-10-04T00:04:28.074Z,100.00
2022-10-04T00:07:14.654Z,100.00
2022-10-04T00:09:58.203Z,100.00
2022-10-04T00:12:33.382Z,100.00
2022-10-04T00:15:05.491Z,100.00
2022-10-04T00:17:32.855Z,100.00
2022-10-04T00:19:59.471Z,100.00
2022-10-04T00:22:26.843Z,100.00
2022-10-04T00:25:08.491Z,100.00
2022-10-04T00:27:36.735Z,100.00
2022-10-04T00:30:03.108Z,100.00
2022-10-04T00:32:38.687Z,100.00
2022-10-04T00:35:25.034Z,100.00
2022-10-04T00:37:58.438Z,100.00
2022-10-04T00:40:31.504Z,100.00
2022-10-04T00:43:19.768Z,100.00
2022-10-04T00:45:51.529Z,100.00
2022-10-04T00:48:38.148Z,100.00
2022-10-04T00:51:43.799Z,100.00
2022-10-04T00:54:18.239Z,100.00
2022-10-04T00:57:07.591Z,100.00
2022-10-04T00:59:48.045Z,100.00
2022-10-04T01:02:17.428Z,100.00
2022-10-04T01:04:51.713Z,100.00
2022-10-04T01:07:27.157Z,100.00
2022-10-04T01:09:58.633Z,100.00
2022-10-04T01:12:42.338Z,100.00
2022-10-04T01:15:16.255Z,100.00
2022-10-04T01:18:18.589Z,100.00
2022-10-04T01:21:02.828Z,100.00
2022-10-04T01:23:47.548Z,100.00
2022-10-04T01:26:29.000Z,100.00
2022-10-04T01:28:55.361Z,100.00
2022-10-04T01:31:22.269Z,100.00
2022-10-04T01:33:48.765Z,100.00
2022-10-04T01:36:15.624Z,100.00
2022-10-04T01:38:42.141Z,100.00
2022-10-04T01:41:10.945Z,100.00
2022-10-04T01:43:42.393Z,100.00
2022-10-04T01:46:15.345Z,100.00
2022-10-04T01:48:45.786Z,100.00
2022-10-04T01:51:30.232Z,100.00
2022-10-04T01:54:02.437Z,100.00
2022-10-04T01:56:39.328Z,100.00
2022-10-04T01:59:13.550Z,100.00
2022-10-04T02:01:52.987Z,100.00
2022-10-04T02:04:27.013Z,100.00
2022-10-04T02:06:57.373Z,100.00
2022-10-04T02:09:31.987Z,100.00
2022-10-04T02:11:58.930Z,100.00
2022-10-04T02:14:30.798Z,100.00
2022-10-04T02:16:58.697Z,100.00
2022-10-04T02:19:32.346Z,100.00
2022-10-04T02:22:00.923Z,100.00
2022-10-04T02:24:27.509Z,100.00
2022-10-04T02:26:54.208Z,100.00
2022-10-04T02:29:23.848Z,100.00
2022-10-04T02:31:51.798Z,100.00
2022-10-04T02:34:19.192Z,100.00
2022-10-04T02:36:45.934Z,100.00
2022-10-04T02:39:20.590Z,100.00
2022-10-04T02:42:04.022Z,100.00
2022-10-04T02:44:34.575Z,100.00
2022-10-04T02:47:23.915Z,100.00
2022-10-04T02:49:57.891Z,100.00
2022-10-04T02:52:36.278Z,100.00
2022-10-04T02:55:09.516Z,100.00
2022-10-04T02:57:36.359Z,100.00
2022-10-04T03:00:18.017Z,100.00
2022-10-04T03:03:12.001Z,100.00
2022-10-04T03:05:40.313Z,100.00
2022-10-04T03:08:07.791Z,100.00
2022-10-04T03:10:35.498Z,100.00
2022-10-04T03:13:03.866Z,100.00
2022-10-04T03:15:31.510Z,100.00
2022-10-04T03:17:59.752Z,100.00
2022-10-04T03:20:26.642Z,100.00
2022-10-04T03:22:56.040Z,100.00
2022-10-04T03:25:28.155Z,100.00
2022-10-04T03:27:56.953Z,100.00
2022-10-04T03:30:23.618Z,100.00
2022-10-04T03:32:50.818Z,100.00
2022-10-04T03:35:31.126Z,100.00
2022-10-04T03:37:59.732Z,100.00
2022-10-04T03:40:30.442Z,100.00
2022-10-04T03:42:59.018Z,100.00
2022-10-04T03:45:27.835Z,100.00
2022-10-04T03:48:06.453Z,100.00
2022-10-04T03:50:45.464Z,100.00
2022-10-04T03:53:29.589Z,100.00
2022-10-04T03:55:58.244Z,100.00
2022-10-04T03:58:30.864Z,100.00
2022-10-04T04:01:29.480Z,100.00
2022-10-04T04:04:33.462Z,100.00
2022-10-04T04:07:06.571Z,100.00
2022-10-04T04:09:38.896Z,100.00
2022-10-04T04:12:11.460Z,100.00
2022-10-04T04:14:41.130Z,100.00
2022-10-04T04:17:47.015Z,100.00
2022-10-04T04:20:18.637Z,100.00
2022-10-04T04:22:52.329Z,100.00
2022-10-04T04:25:18.936Z,100.00
2022-10-04T04:27:47.530Z,100.00
2022-10-04T04:30:17.855Z,100.00
2022-10-04T04:32:51.438Z,100.00
2022-10-04T04:35:32.916Z,100.00
2022-10-04T04:38:06.857Z,100.00
2022-10-04T04:40:33.465Z,100.00
2022-10-04T04:43:02.001Z,100.00
2022-10-04T04:45:30.611Z,100.00
2022-10-04T04:47:58.519Z,100.00
2022-10-04T04:50:28.815Z,100.00
2022-10-04T04:53:00.417Z,100.00
2022-10-04T04:55:44.515Z,100.00
2022-10-04T04:58:20.069Z,100.00
2022-10-04T05:00:54.750Z,100.00
2022-10-04T05:03:21.690Z,100.00
2022-10-04T05:05:48.235Z,100.00
2022-10-04T05:08:19.692Z,100.00
2022-10-04T05:10:58.528Z,100.00
2022-10-04T05:13:36.982Z,100.00
2022-10-04T05:16:03.556Z,100.00
2022-10-04T05:18:31.171Z,100.00
2022-10-04T05:21:04.568Z,100.00
2022-10-04T05:23:30.940Z,100.00
2022-10-04T05:25:57.858Z,100.00
2022-10-04T05:28:24.368Z,100.00
2022-10-04T05:31:24.422Z,100.00
2022-10-04T05:33:55.192Z,100.00
2022-10-04T05:36:34.312Z,100.00
2022-10-04T05:39:22.566Z,100.00
2022-10-04T05:41:56.433Z,100.00
2022-10-04T05:44:35.099Z,100.00
2022-10-04T05:47:05.623Z,100.00
2022-10-04T05:49:42.117Z,100.00
2022-10-04T05:52:16.274Z,100.00
2022-10-04T05:54:42.846Z,100.00
2022-10-04T05:57:33.539Z,100.00
2022-10-04T06:00:21.063Z,100.00
2022-10-04T06:02:47.546Z,100.00
2022-10-04T06:05:29.388Z,100.00
2022-10-04T06:08:29.156Z,100.00
2022-10-04T06:11:13.743Z,100.00
2022-10-04T06:14:22.530Z,100.00
2022-10-04T06:17:03.999Z,100.00
2022-10-04T06:19:51.459Z,100.00
2022-10-04T06:22:20.156Z,100.00
2022-10-04T06:25:07.646Z,100.00
2022-10-04T06:27:40.030Z,100.00
2022-10-04T06:30:15.221Z,100.00
2022-10-04T06:33:08.709Z,100.00
2022-10-04T06:35:38.194Z,100.00
2022-10-04T06:38:30.858Z,100.00
2022-10-04T06:41:03.280Z,100.00
2022-10-04T06:43:47.924Z,100.00
2022-10-04T06:46:34.699Z,100.00
2022-10-04T06:49:20.853Z,100.00
2022-10-04T06:51:59.430Z,100.00
2022-10-04T06:54:55.420Z,100.00
2022-10-04T06:57:43.240Z,100.00
2022-10-04T07:00:18.635Z,100.00
2022-10-04T07:03:11.459Z,100.00
2022-10-04T07:05:52.862Z,100.00
2022-10-04T07:08:24.637Z,100.00
2022-10-04T07:10:56.945Z,100.00
2022-10-04T07:13:56.469Z,100.00
2022-10-04T07:16:51.714Z,100.00
2022-10-04T07:19:33.317Z,100.00
2022-10-04T07:22:14.144Z,100.00
2022-10-04T07:25:17.864Z,100.00
2022-10-04T07:27:58.199Z,100.00
2022-10-04T07:30:24.696Z,100.00
2022-10-04T07:32:51.926Z,100.00
2022-10-04T07:35:55.104Z,100.00
2022-10-04T07:38:29.046Z,100.00
2022-10-04T07:40:58.441Z,100.00
2022-10-04T07:43:32.738Z,100.00
2022-10-04T07:46:11.071Z,100.00
2022-10-04T07:48:40.995Z,100.00
2022-10-04T07:51:19.689Z,100.00
2022-10-04T07:53:53.668Z,100.00
2022-10-04T07:56:35.258Z,100.00
2022-10-04T07:59:17.054Z,100.00
2022-10-04T08:01:52.447Z,100.00
2022-10-04T08:05:09.982Z,100.00
2022-10-04T08:07:45.410Z,100.00
2022-10-04T08:10:22.810Z,100.00
2022-10-04T08:13:05.601Z,100.00
2022-10-04T08:15:40.484Z,100.00
2022-10-04T08:18:20.565Z,100.00
2022-10-04T08:20:53.862Z,100.00
2022-10-04T08:23:39.270Z,100.00
2022-10-04T08:26:26.857Z,100.00
2022-10-04T08:28:53.277Z,100.00
2022-10-04T08:31:38.546Z,100.00
2022-10-04T08:34:29.805Z,100.00
2022-10-04T08:37:01.941Z,100.00
2022-10-04T08:40:12.998Z,100.00
2022-10-04T08:43:16.616Z,100.00
2022-10-04T08:46:06.411Z,100.00
2022-10-04T08:48:51.010Z,100.00
2022-10-04T08:51:54.419Z,100.00
2022-10-04T08:54:45.099Z,100.00
2022-10-04T08:57:15.870Z,100.00
2022-10-04T09:00:11.522Z,100.00
2022-10-04T09:03:25.304Z,100.00
2022-10-04T09:06:13.009Z,100.00
2022-10-04T09:09:13.335Z,100.00
2022-10-04T09:12:12.713Z,100.00
2022-10-04T09:14:56.565Z,100.00
2022-10-04T09:17:46.460Z,100.00
2022-10-04T09:20:38.889Z,100.00
2022-10-04T09:23:24.173Z,100.00
2022-10-04T09:25:56.651Z,100.00
2022-10-04T09:28:44.894Z,100.00
2022-10-04T09:31:23.319Z,100.00
2022-10-04T09:34:37.470Z,100.00
2022-10-04T09:37:32.145Z,100.00
2022-10-04T09:40:10.978Z,100.00
2022-10-04T09:43:04.448Z,100.00
2022-10-04T09:46:06.370Z,100.00
2022-10-04T09:48:42.186Z,100.00
2022-10-04T09:51:26.777Z,100.00
2022-10-04T09:54:07.350Z,100.00
2022-10-04T09:57:07.695Z,100.00
2022-10-04T09:59:56.733Z,100.00
2022-10-04T10:02:32.390Z,100.00
2022-10-04T10:05:23.019Z,100.00
2022-10-04T10:08:07.507Z,100.00
2022-10-04T10:10:47.671Z,100.00
2022-10-04T10:13:57.852Z,100.00
2022-10-04T10:17:03.380Z,98.17
2022-10-04T10:19:48.319Z,100.00
2022-10-04T10:22:27.612Z,100.00
2022-10-04T10:25:10.250Z,100.00
2022-10-04T10:28:07.944Z,100.00
2022-10-04T10:31:11.418Z,97.65
2022-10-04T10:34:13.944Z,94.04
2022-10-04T10:37:06.523Z,91.23
2022-10-04T10:39:51.101Z,98.11
2022-10-04T10:42:39.100Z,94.35
2022-10-04T10:45:17.683Z,92.60
2022-10-04T10:47:54.123Z,91.08
2022-10-04T10:50:43.699Z,90.01
2022-10-04T10:53:29.650Z,86.30
2022-10-04T10:56:27.999Z,90.93
2022-10-04T10:59:22.996Z,93.37
2022-10-04T11:01:57.435Z,89.28
2022-10-04T11:04:44.047Z,92.15
2022-10-04T11:07:46.335Z,90.26
2022-10-04T11:10:12.789Z,86.28
2022-10-04T11:13:19.732Z,88.23
2022-10-04T11:15:59.069Z,92.90
2022-10-04T11:18:46.428Z,92.24
2022-10-04T11:21:44.164Z,88.31
2022-10-04T11:24:32.596Z,82.74
2022-10-04T11:27:30.238Z,79.98
2022-10-04T11:30:02.419Z,80.42
2022-10-04T11:33:17.180Z,81.46
2022-10-04T11:36:02.592Z,80.10
2022-10-04T11:38:51.790Z,76.33
2022-10-04T11:41:46.668Z,74.83
2022-10-04T11:44:50.922Z,76.24
2022-10-04T11:47:39.420Z,76.31
2022-10-04T11:50:09.415Z,73.59
2022-10-04T11:52:59.252Z,72.15
2022-10-04T11:55:55.411Z,68.43
2022-10-04T11:58:43.337Z,70.68
2022-10-04T12:01:57.794Z,71.05
2022-10-04T12:04:41.143Z,71.02
2022-10-04T12:07:26.552Z,70.54
2022-10-04T12:10:24.374Z,71.27
2022-10-04T12:13:12.439Z,74.38
2022-10-04T12:15:50.983Z,73.25
2022-10-04T12:18:27.531Z,75.36
2022-10-04T12:20:59.944Z,77.02
2022-10-04T12:23:44.981Z,75.67
2022-10-04T12:26:19.386Z,72.93
2022-10-04T12:28:58.165Z,73.32
2022-10-04T12:31:40.984Z,70.56
2022-10-04T12:34:10.501Z,68.37
2022-10-04T12:36:48.366Z,69.70
2022-10-04T12:39:26.436Z,69.01
2022-10-04T12:42:10.955Z,70.61
2022-10-04T12:44:55.036Z,71.64
2022-10-04T12:47:42.679Z,69.56
2022-10-04T12:50:35.525Z,69.05
2022-10-04T12:53:20.607Z,68.43
2022-10-04T12:56:00.603Z,67.70
2022-10-04T12:58:36.165Z,68.80
2022-10-04T13:01:17.077Z,69.23
2022-10-04T13:03:43.472Z,70.51
2022-10-04T13:06:13.893Z,70.74
2022-10-04T13:08:50.774Z,68.71
2022-10-04T13:11:37.386Z,66.44
2022-10-04T13:14:26.978Z,65.18
2022-10-04T13:20:21.315Z,66.48
2022-10-04T13:23:22.578Z,64.40
2022-10-04T13:26:02.684Z,63.64
2022-10-04T13:29:01.157Z,63.01
2022-10-04T13:31:51.184Z,62.09
2022-10-04T13:34:57.359Z,62.83
2022-10-04T13:37:42.896Z,61.96
2022-10-04T13:40:50.470Z,60.97
2022-10-04T13:43:27.567Z,61.26
2022-10-04T13:46:07.389Z,62.30
2022-10-04T13:49:18.417Z,63.38
2022-10-04T13:51:44.973Z,63.06
2022-10-04T13:54:40.522Z,62.12
2022-10-04T13:57:30.922Z,62.46
2022-10-04T14:00:11.954Z,63.61
2022-10-04T14:02:50.461Z,65.37
2022-10-04T14:05:23.025Z,62.03
2022-10-04T14:08:17.187Z,61.42
2022-10-04T14:10:43.543Z,61.89
2022-10-04T14:13:47.881Z,62.83
2022-10-04T14:16:29.382Z,62.65
2022-10-04T14:19:22.336Z,64.06
2022-10-04T14:22:13.427Z,64.66
2022-10-04T14:24:41.266Z,65.12
2022-10-04T14:27:37.701Z,65.53
2022-10-04T14:30:19.524Z,66.37
2022-10-04T14:33:18.654Z,64.03
2022-10-04T14:36:03.420Z,65.79
2022-10-04T14:38:38.790Z,66.10
2022-10-04T14:41:38.948Z,68.49
2022-10-04T14:44:20.414Z,67.80
2022-10-04T14:47:11.454Z,67.55
2022-10-04T14:50:01.166Z,68.63
2022-10-04T14:53:12.972Z,70.48
2022-10-04T14:55:57.755Z,71.44
2022-10-04T14:58:43.095Z,71.45
2022-10-04T15:01:22.265Z,69.74
2022-10-04T15:04:09.860Z,69.57
2022-10-04T15:06:39.211Z,65.45
2022-10-04T15:09:05.512Z,66.35
2022-10-04T15:11:40.567Z,66.10
2022-10-04T15:14:29.541Z,66.04
2022-10-04T15:16:59.579Z,65.91
2022-10-04T15:19:53.114Z,68.25
2022-10-04T15:22:28.396Z,67.83
2022-10-04T15:24:55.200Z,67.05
2022-10-04T15:27:34.263Z,67.98
2022-10-04T15:30:09.847Z,69.37
2022-10-04T15:33:09.226Z,68.61
2022-10-04T15:35:54.185Z,69.14
2022-10-04T15:38:36.161Z,69.61
2022-10-04T15:41:08.337Z,69.09
2022-10-04T15:43:40.925Z,70.35
2022-10-04T15:46:42.044Z,70.16
2022-10-04T15:49:22.945Z,72.07
2022-10-04T15:51:55.476Z,74.06
2022-10-04T15:54:47.405Z,75.83
2022-10-04T15:57:37.229Z,77.07
2022-10-04T16:00:14.640Z,76.30
2022-10-04T16:02:50.283Z,79.16
2022-10-04T16:05:39.238Z,79.92
2022-10-04T16:08:14.666Z,80.21
2022-10-04T16:11:15.112Z,79.74
2022-10-04T16:13:45.339Z,80.21
2022-10-04T16:16:17.600Z,83.36
2022-10-04T16:19:02.804Z,83.89
2022-10-04T16:21:47.671Z,85.00
2022-10-04T16:24:19.783Z,88.23
2022-10-04T16:26:46.357Z,87.70
2022-10-04T16:29:34.466Z,88.46
2022-10-04T16:32:19.174Z,90.20
2022-10-04T16:35:02.115Z,91.57
2022-10-04T16:37:55.715Z,93.55
2022-10-04T16:40:37.740Z,95.15
2022-10-04T16:43:26.691Z,96.13
2022-10-04T16:46:14.753Z,96.67
2022-10-04T16:48:57.960Z,98.36
2022-10-04T16:51:46.679Z,99.53
2022-10-04T16:54:56.874Z,100.00
2022-10-04T16:57:26.165Z,100.00
2022-10-04T16:59:58.883Z,100.00
2022-10-04T17:02:37.510Z,100.00
2022-10-04T17:05:44.653Z,100.00
2022-10-04T17:08:17.212Z,100.00
2022-10-04T17:10:46.423Z,100.00
2022-10-04T17:13:19.487Z,100.00
2022-10-04T17:16:24.015Z,100.00
2022-10-04T17:19:09.353Z,100.00
2022-10-04T17:21:57.614Z,100.00
2022-10-04T17:24:59.568Z,100.00
2022-10-04T17:27:27.507Z,100.00
2022-10-04T17:30:03.208Z,100.00
2022-10-04T17:32:57.747Z,100.00
2022-10-04T17:36:01.544Z,100.00
2022-10-04T17:38:41.407Z,100.00
2022-10-04T17:41:17.801Z,100.00
2022-10-04T17:44:21.901Z,100.00
2022-10-04T17:47:14.746Z,100.00
2022-10-04T17:49:52.773Z,100.00
2022-10-04T17:52:27.665Z,100.00
2022-10-04T17:54:59.315Z,100.00
2022-10-04T17:57:34.521Z,100.00
2022-10-04T18:00:14.345Z,100.00
2022-10-04T18:03:00.992Z,100.00
2022-10-04T18:05:43.372Z,100.00
2022-10-04T18:08:12.739Z,100.00
2022-10-04T18:10:50.509Z,100.00
2022-10-04T18:13:36.003Z,100.00
2022-10-04T18:16:23.977Z,100.00
2022-10-04T18:18:50.670Z,100.00
2022-10-04T18:21:27.648Z,100.00
2022-10-04T18:23:55.518Z,100.00
2022-10-04T18:26:23.400Z,100.00
2022-10-04T18:28:52.945Z,100.00
2022-10-04T18:31:24.648Z,100.00
2022-10-04T18:33:52.494Z,100.00
2022-10-04T18:36:24.298Z,100.00
2022-10-04T18:39:17.982Z,100.00
2022-10-04T18:42:15.737Z,100.00
2022-10-04T18:44:47.322Z,100.00
2022-10-04T18:47:45.022Z,100.00
2022-10-04T18:50:22.272Z,100.00
2022-10-04T18:53:10.613Z,100.00
2022-10-04T18:55:55.508Z,100.00
2022-10-04T18:58:40.111Z,100.00
2022-10-04T19:01:32.766Z,100.00
2022-10-04T19:04:13.399Z,100.00
2022-10-04T19:06:46.443Z,100.00
2022-10-04T19:09:16.092Z,100.00
2022-10-04T19:11:51.781Z,100.00
2022-10-04T19:14:36.636Z,100.00
2022-10-04T19:17:41.300Z,100.00
2022-10-04T19:20:19.482Z,100.00
2022-10-04T19:23:04.682Z,100.00
2022-10-04T19:25:35.155Z,100.00
2022-10-04T19:28:17.390Z,100.00
2022-10-04T19:31:02.069Z,100.00
2022-10-04T19:33:50.363Z,100.00
2022-10-04T19:36:23.354Z,100.00
2022-10-04T19:39:12.375Z,100.00
2022-10-04T19:41:51.663Z,100.00
2022-10-04T19:44:51.906Z,100.00
2022-10-04T19:47:39.031Z,100.00
2022-10-04T19:50:32.103Z,100.00
2022-10-04T19:53:17.078Z,100.00
2022-10-04T19:55:57.955Z,100.00
2022-10-04T19:58:30.347Z,100.00
2022-10-04T20:00:56.848Z,100.00
2022-10-04T20:03:23.275Z,100.00
2022-10-04T20:05:52.264Z,100.00
2022-10-04T20:08:49.652Z,100.00
2022-10-04T20:11:37.523Z,100.00
2022-10-04T20:14:06.712Z,100.00
2022-10-04T20:16:48.983Z,100.00
2022-10-04T20:19:20.056Z,100.00
2022-10-04T20:21:46.503Z,100.00
2022-10-04T20:24:18.267Z,100.00
2022-10-04T20:26:49.393Z,100.00
2022-10-04T20:29:37.608Z,100.00
2022-10-04T20:32:06.044Z,100.00
2022-10-04T20:34:38.560Z,100.00
2022-10-04T20:37:08.341Z,100.00
2022-10-04T20:39:40.680Z,100.00
2022-10-04T20:42:25.253Z,100.00
2022-10-04T20:44:57.333Z,100.00
2022-10-04T20:47:43.048Z,100.00
2022-10-04T20:50:09.499Z,100.00
2022-10-04T20:52:36.867Z,100.00
2022-10-04T20:55:16.799Z,100.00
2022-10-04T20:57:43.212Z,100.00
2022-10-04T21:00:24.430Z,100.00
2022-10-04T21:03:08.554Z,100.00
2022-10-04T21:05:35.182Z,100.00
2022-10-04T21:08:23.082Z,100.00
2022-10-04T21:11:09.479Z,100.00
2022-10-04T21:13:56.739Z,100.00
2022-10-04T21:16:36.954Z,100.00
2022-10-04T21:19:29.223Z,100.00
2022-10-04T21:21:56.407Z,100.00
2022-10-04T21:24:40.256Z,100.00
2022-10-04T21:27:09.490Z,100.00
2022-10-04T21:29:37.217Z,100.00
2022-10-04T21:32:04.417Z,100.00
2022-10-04T21:34:51.837Z,100.00
2022-10-04T21:37:18.392Z,100.00
2022-10-04T21:39:45.238Z,100.00
2022-10-04T21:42:11.989Z,100.00
2022-10-04T21:44:38.353Z,100.00
2022-10-04T21:47:04.855Z,100.00
2022-10-04T21:49:31.357Z,100.00
2022-10-04T21:51:57.806Z,100.00
2022-10-04T21:54:24.216Z,100.00
2022-10-04T21:56:50.769Z,100.00
2022-10-04T21:59:17.263Z,100.00
2022-10-04T22:01:43.606Z,100.00
2022-10-04T22:04:10.082Z,100.00
2022-10-04T22:06:36.612Z,100.00
2022-10-04T22:09:04.320Z,100.00
2022-10-04T22:11:30.898Z,100.00
2022-10-04T22:13:57.399Z,100.00
2022-10-04T22:16:23.799Z,100.00
2022-10-04T22:18:50.349Z,100.00
2022-10-04T22:21:16.819Z,100.00
2022-10-04T22:23:44.514Z,100.00
2022-10-04T22:26:16.408Z,100.00
2022-10-04T22:28:53.663Z,100.00
2022-10-04T22:31:27.512Z,100.00
2022-10-04T22:33:54.755Z,100.00
2022-10-04T22:36:39.929Z,100.00
2022-10-04T22:39:17.493Z,100.00
2022-10-04T22:41:47.022Z,100.00
2022-10-04T22:44:18.021Z,100.00
2022-10-04T22:46:47.291Z,100.00
2022-10-04T22:49:16.907Z,100.00
2022-10-04T22:51:47.316Z,100.00
2022-10-04T22:54:17.456Z,100.00
2022-10-04T22:56:44.476Z,100.00
2022-10-04T22:59:13.478Z,100.00
2022-10-04T23:01:40.537Z,100.00
2022-10-04T23:04:20.888Z,100.00
2022-10-04T23:06:48.383Z,100.00
2022-10-04T23:09:15.042Z,100.00
2022-10-04T23:11:41.635Z,100.00
2022-10-04T23:14:08.124Z,100.00
2022-10-04T23:16:36.489Z,100.00
2022-10-04T23:19:13.040Z,100.00
2022-10-04T23:21:42.974Z,100.00
2022-10-04T23:24:21.466Z,100.00
2022-10-04T23:26:52.777Z,100.00
2022-10-04T23:29:19.505Z,100.00
2022-10-04T23:31:46.882Z,100.00
2022-10-04T23:34:17.876Z,100.00
2022-10-04T23:36:45.460Z,100.00
2022-10-04T23:39:19.620Z,100.00
2022-10-04T23:41:46.274Z,100.00
2022-10-04T23:44:14.446Z,100.00
2022-10-04T23:46:40.960Z,100.00
2022-10-04T23:49:15.240Z,100.00
2022-10-04T23:51:42.476Z,100.00
2022-10-04T23:54:18.354Z,100.00
2022-10-04T23:56:45.880Z,100.00
2022-10-04T23:59:21.822Z,100.00
